sensor_id;sensor_type;location;lat;lon;timestamp;P1;durP1;ratioP1;P2;durP2;ratioP2
41077;SDS011;26823;42.662;23.352;2023-07-31T00:02:06;2.85;;;2.35;;
41077;SDS011;26823;42.662;23.352;2023-07-31T00:04:31;2.83;;;2.50;;
41077;SDS011;26823;42.662;23.352;2023-07-31T00:06:57;2.55;;;2.35;;
41077;SDS011;26823;42.662;23.352;2023-07-31T00:09:22;6.20;;;2.63;;
41077;SDS011;26823;42.662;23.352;2023-07-31T00:11:47;2.90;;;2.70;;
41077;SDS011;26823;42.662;23.352;2023-07-31T00:14:13;3.20;;;2.90;;
41077;SDS011;26823;42.662;23.352;2023-07-31T00:16:38;3.25;;;2.70;;
41077;SDS011;26823;42.662;23.352;2023-07-31T00:19:03;5.03;;;3.00;;
41077;SDS011;26823;42.662;23.352;2023-07-31T00:21:29;2.83;;;2.55;;
41077;SDS011;26823;42.662;23.352;2023-07-31T00:23:54;2.90;;;2.70;;
41077;SDS011;26823;42.662;23.352;2023-07-31T00:26:19;2.67;;;2.47;;
41077;SDS011;26823;42.662;23.352;2023-07-31T00:28:45;2.75;;;2.55;;
41077;SDS011;26823;42.662;23.352;2023-07-31T00:31:10;3.20;;;2.90;;
41077;SDS011;26823;42.662;23.352;2023-07-31T00:33:35;3.00;;;2.70;;
41077;SDS011;26823;42.662;23.352;2023-07-31T00:36:01;3.22;;;2.88;;
41077;SDS011;26823;42.662;23.352;2023-07-31T00:38:27;4.13;;;3.30;;
41077;SDS011;26823;42.662;23.352;2023-07-31T00:40:53;4.35;;;3.30;;
41077;SDS011;26823;42.662;23.352;2023-07-31T00:43:25;3.35;;;3.05;;
41077;SDS011;26823;42.662;23.352;2023-07-31T00:45:50;3.45;;;3.15;;
41077;SDS011;26823;42.662;23.352;2023-07-31T00:48:16;3.20;;;2.90;;
41077;SDS011;26823;42.662;23.352;2023-07-31T00:50:41;3.03;;;2.80;;
41077;SDS011;26823;42.662;23.352;2023-07-31T00:53:07;3.53;;;3.22;;
41077;SDS011;26823;42.662;23.352;2023-07-31T00:55:32;4.80;;;3.35;;
41077;SDS011;26823;42.662;23.352;2023-07-31T00:57:58;4.28;;;3.88;;
41077;SDS011;26823;42.662;23.352;2023-07-31T01:00:23;5.63;;;4.57;;
41077;SDS011;26823;42.662;23.352;2023-07-31T01:02:49;4.90;;;4.50;;
41077;SDS011;26823;42.662;23.352;2023-07-31T01:05:16;5.28;;;4.70;;
41077;SDS011;26823;42.662;23.352;2023-07-31T01:10:16;6.45;;;5.05;;
41077;SDS011;26823;42.662;23.352;2023-07-31T01:12:45;5.78;;;5.15;;
41077;SDS011;26823;42.662;23.352;2023-07-31T01:15:13;5.45;;;4.97;;
41077;SDS011;26823;42.662;23.352;2023-07-31T01:17:40;7.03;;;6.35;;
41077;SDS011;26823;42.662;23.352;2023-07-31T01:26:49;7.43;;;6.72;;
41077;SDS011;26823;42.662;23.352;2023-07-31T01:31:25;9.65;;;8.07;;
41077;SDS011;26823;42.662;23.352;2023-07-31T01:33:53;8.65;;;7.38;;
41077;SDS011;26823;42.662;23.352;2023-07-31T01:36:19;8.73;;;7.80;;
41077;SDS011;26823;42.662;23.352;2023-07-31T01:38:45;9.75;;;7.88;;
41077;SDS011;26823;42.662;23.352;2023-07-31T01:41:10;9.27;;;8.38;;
41077;SDS011;26823;42.662;23.352;2023-07-31T01:43:36;9.98;;;8.95;;
41077;SDS011;26823;42.662;23.352;2023-07-31T01:46:01;11.43;;;10.43;;
41077;SDS011;26823;42.662;23.352;2023-07-31T01:48:26;10.93;;;9.82;;
41077;SDS011;26823;42.662;23.352;2023-07-31T01:50:52;11.43;;;10.23;;
41077;SDS011;26823;42.662;23.352;2023-07-31T01:53:17;12.98;;;11.73;;
41077;SDS011;26823;42.662;23.352;2023-07-31T01:55:43;13.55;;;12.25;;
41077;SDS011;26823;42.662;23.352;2023-07-31T01:58:08;14.40;;;13.00;;
41077;SDS011;26823;42.662;23.352;2023-07-31T02:00:34;14.85;;;13.43;;
41077;SDS011;26823;42.662;23.352;2023-07-31T02:02:59;14.48;;;13.07;;
41077;SDS011;26823;42.662;23.352;2023-07-31T02:05:25;15.73;;;13.95;;
41077;SDS011;26823;42.662;23.352;2023-07-31T02:07:50;15.63;;;14.02;;
41077;SDS011;26823;42.662;23.352;2023-07-31T02:10:16;17.35;;;15.18;;
41077;SDS011;26823;42.662;23.352;2023-07-31T02:12:41;18.02;;;15.27;;
41077;SDS011;26823;42.662;23.352;2023-07-31T02:15:07;18.75;;;15.82;;
41077;SDS011;26823;42.662;23.352;2023-07-31T02:17:32;17.40;;;15.60;;
41077;SDS011;26823;42.662;23.352;2023-07-31T02:19:57;18.15;;;16.30;;
41077;SDS011;26823;42.662;23.352;2023-07-31T02:22:23;17.88;;;16.10;;
41077;SDS011;26823;42.662;23.352;2023-07-31T02:24:48;18.10;;;16.30;;
41077;SDS011;26823;42.662;23.352;2023-07-31T02:27:14;17.33;;;15.63;;
41077;SDS011;26823;42.662;23.352;2023-07-31T02:29:39;20.23;;;16.48;;
41077;SDS011;26823;42.662;23.352;2023-07-31T02:32:04;18.65;;;16.63;;
41077;SDS011;26823;42.662;23.352;2023-07-31T02:34:30;18.83;;;16.92;;
41077;SDS011;26823;42.662;23.352;2023-07-31T02:36:55;19.92;;;17.77;;
41077;SDS011;26823;42.662;23.352;2023-07-31T02:39:21;19.42;;;17.40;;
41077;SDS011;26823;42.662;23.352;2023-07-31T02:41:46;18.55;;;16.65;;
41077;SDS011;26823;42.662;23.352;2023-07-31T02:44:12;19.60;;;17.15;;
41077;SDS011;26823;42.662;23.352;2023-07-31T02:46:39;20.55;;;17.00;;
41077;SDS011;26823;42.662;23.352;2023-07-31T02:49:05;19.20;;;17.25;;
41077;SDS011;26823;42.662;23.352;2023-07-31T02:51:30;19.63;;;17.63;;
41077;SDS011;26823;42.662;23.352;2023-07-31T02:53:55;18.55;;;16.70;;
41077;SDS011;26823;42.662;23.352;2023-07-31T02:56:21;18.25;;;16.40;;
41077;SDS011;26823;42.662;23.352;2023-07-31T02:58:46;20.23;;;17.38;;
41077;SDS011;26823;42.662;23.352;2023-07-31T03:01:12;17.58;;;15.82;;
41077;SDS011;26823;42.662;23.352;2023-07-31T03:03:37;17.95;;;16.00;;
41077;SDS011;26823;42.662;23.352;2023-07-31T03:06:02;21.08;;;16.27;;
41077;SDS011;26823;42.662;23.352;2023-07-31T03:08:28;18.52;;;16.40;;
41077;SDS011;26823;42.662;23.352;2023-07-31T03:10:53;18.80;;;16.90;;
41077;SDS011;26823;42.662;23.352;2023-07-31T03:13:19;18.52;;;16.65;;
41077;SDS011;26823;42.662;23.352;2023-07-31T03:15:44;18.42;;;16.52;;
41077;SDS011;26823;42.662;23.352;2023-07-31T03:18:09;18.10;;;16.38;;
41077;SDS011;26823;42.662;23.352;2023-07-31T03:20:35;18.90;;;16.00;;
41077;SDS011;26823;42.662;23.352;2023-07-31T03:23:00;18.65;;;16.75;;
41077;SDS011;26823;42.662;23.352;2023-07-31T03:25:25;19.48;;;17.45;;
41077;SDS011;26823;42.662;23.352;2023-07-31T03:27:51;19.35;;;17.27;;
41077;SDS011;26823;42.662;23.352;2023-07-31T03:30:16;17.98;;;16.25;;
41077;SDS011;26823;42.662;23.352;2023-07-31T03:32:42;18.33;;;16.42;;
41077;SDS011;26823;42.662;23.352;2023-07-31T03:35:07;20.23;;;18.17;;
41077;SDS011;26823;42.662;23.352;2023-07-31T03:37:33;20.75;;;17.05;;
41077;SDS011;26823;42.662;23.352;2023-07-31T03:39:58;18.50;;;16.70;;
41077;SDS011;26823;42.662;23.352;2023-07-31T03:42:30;19.08;;;17.17;;
41077;SDS011;26823;42.662;23.352;2023-07-31T03:44:55;22.05;;;17.23;;
41077;SDS011;26823;42.662;23.352;2023-07-31T03:47:21;19.88;;;17.38;;
41077;SDS011;26823;42.662;23.352;2023-07-31T03:49:46;18.13;;;16.23;;
41077;SDS011;26823;42.662;23.352;2023-07-31T03:52:11;19.38;;;17.27;;
41077;SDS011;26823;42.662;23.352;2023-07-31T03:54:37;19.35;;;17.27;;
41077;SDS011;26823;42.662;23.352;2023-07-31T03:57:02;18.38;;;16.42;;
41077;SDS011;26823;42.662;23.352;2023-07-31T03:59:28;20.83;;;18.63;;
41077;SDS011;26823;42.662;23.352;2023-07-31T04:01:53;20.63;;;18.45;;
41077;SDS011;26823;42.662;23.352;2023-07-31T04:04:18;19.15;;;17.08;;
41077;SDS011;26823;42.662;23.352;2023-07-31T04:06:44;20.85;;;17.25;;
41077;SDS011;26823;42.662;23.352;2023-07-31T04:09:09;19.95;;;17.85;;
41077;SDS011;26823;42.662;23.352;2023-07-31T04:11:34;21.15;;;18.98;;
41077;SDS011;26823;42.662;23.352;2023-07-31T04:14:00;25.15;;;18.88;;
41077;SDS011;26823;42.662;23.352;2023-07-31T04:16:25;20.83;;;18.45;;
41077;SDS011;26823;42.662;23.352;2023-07-31T04:18:50;21.08;;;18.58;;
41077;SDS011;26823;42.662;23.352;2023-07-31T04:21:16;20.48;;;18.27;;
41077;SDS011;26823;42.662;23.352;2023-07-31T04:23:42;21.17;;;17.50;;
41077;SDS011;26823;42.662;23.352;2023-07-31T04:26:08;20.40;;;18.17;;
41077;SDS011;26823;42.662;23.352;2023-07-31T04:28:33;21.05;;;18.15;;
41077;SDS011;26823;42.662;23.352;2023-07-31T04:30:58;20.05;;;17.20;;
41077;SDS011;26823;42.662;23.352;2023-07-31T04:33:24;21.73;;;18.42;;
41077;SDS011;26823;42.662;23.352;2023-07-31T04:35:50;24.60;;;19.38;;
41077;SDS011;26823;42.662;23.352;2023-07-31T04:38:19;19.25;;;17.15;;
41077;SDS011;26823;42.662;23.352;2023-07-31T04:40:46;21.83;;;17.20;;
41077;SDS011;26823;42.662;23.352;2023-07-31T04:43:12;21.98;;;19.35;;
41077;SDS011;26823;42.662;23.352;2023-07-31T04:45:37;19.27;;;17.20;;
41077;SDS011;26823;42.662;23.352;2023-07-31T04:48:03;19.55;;;17.48;;
41077;SDS011;26823;42.662;23.352;2023-07-31T04:50:28;19.50;;;17.48;;
41077;SDS011;26823;42.662;23.352;2023-07-31T04:52:55;19.23;;;17.05;;
41077;SDS011;26823;42.662;23.352;2023-07-31T04:55:21;20.80;;;17.38;;
41077;SDS011;26823;42.662;23.352;2023-07-31T04:57:46;20.00;;;17.83;;
41077;SDS011;26823;42.662;23.352;2023-07-31T05:00:11;19.48;;;16.95;;
41077;SDS011;26823;42.662;23.352;2023-07-31T05:02:37;17.75;;;15.85;;
41077;SDS011;26823;42.662;23.352;2023-07-31T05:05:02;19.17;;;17.27;;
41077;SDS011;26823;42.662;23.352;2023-07-31T05:07:28;19.85;;;17.77;;
41077;SDS011;26823;42.662;23.352;2023-07-31T05:09:53;19.27;;;16.85;;
41077;SDS011;26823;42.662;23.352;2023-07-31T05:12:18;20.02;;;17.90;;
41077;SDS011;26823;42.662;23.352;2023-07-31T05:14:44;20.38;;;18.10;;
41077;SDS011;26823;42.662;23.352;2023-07-31T05:17:09;20.90;;;17.15;;
41077;SDS011;26823;42.662;23.352;2023-07-31T05:19:34;20.48;;;17.98;;
41077;SDS011;26823;42.662;23.352;2023-07-31T05:22:00;19.02;;;17.02;;
41077;SDS011;26823;42.662;23.352;2023-07-31T05:24:25;18.95;;;16.13;;
41077;SDS011;26823;42.662;23.352;2023-07-31T05:26:50;19.92;;;17.63;;
41077;SDS011;26823;42.662;23.352;2023-07-31T05:29:16;17.20;;;15.10;;
41077;SDS011;26823;42.662;23.352;2023-07-31T05:31:41;17.40;;;15.60;;
41077;SDS011;26823;42.662;23.352;2023-07-31T05:34:07;16.95;;;15.23;;
41077;SDS011;26823;42.662;23.352;2023-07-31T05:36:32;17.42;;;15.68;;
41077;SDS011;26823;42.662;23.352;2023-07-31T05:38:57;17.52;;;14.25;;
41077;SDS011;26823;42.662;23.352;2023-07-31T05:41:23;16.60;;;14.70;;
41077;SDS011;26823;42.662;23.352;2023-07-31T05:43:48;13.95;;;12.63;;
41077;SDS011;26823;42.662;23.352;2023-07-31T05:46:13;16.17;;;12.68;;
41077;SDS011;26823;42.662;23.352;2023-07-31T05:48:39;14.63;;;11.82;;
41077;SDS011;26823;42.662;23.352;2023-07-31T05:51:04;14.93;;;13.43;;
41077;SDS011;26823;42.662;23.352;2023-07-31T05:53:29;13.75;;;12.35;;
41077;SDS011;26823;42.662;23.352;2023-07-31T05:55:55;13.00;;;11.70;;
41077;SDS011;26823;42.662;23.352;2023-07-31T05:58:21;11.20;;;9.95;;
41077;SDS011;26823;42.662;23.352;2023-07-31T06:00:46;13.35;;;12.15;;
41077;SDS011;26823;42.662;23.352;2023-07-31T06:03:12;11.63;;;10.52;;
41077;SDS011;26823;42.662;23.352;2023-07-31T06:05:37;11.90;;;10.40;;
41077;SDS011;26823;42.662;23.352;2023-07-31T06:08:03;10.68;;;9.60;;
41077;SDS011;26823;42.662;23.352;2023-07-31T06:10:28;10.65;;;9.27;;
41077;SDS011;26823;42.662;23.352;2023-07-31T06:12:54;11.80;;;8.68;;
41077;SDS011;26823;42.662;23.352;2023-07-31T06:15:19;8.70;;;7.90;;
41077;SDS011;26823;42.662;23.352;2023-07-31T06:17:45;8.32;;;7.15;;
41077;SDS011;26823;42.662;23.352;2023-07-31T06:20:10;9.25;;;7.30;;
41077;SDS011;26823;42.662;23.352;2023-07-31T06:22:36;7.00;;;6.13;;
41077;SDS011;26823;42.662;23.352;2023-07-31T06:25:01;5.88;;;5.35;;
41077;SDS011;26823;42.662;23.352;2023-07-31T06:27:27;6.07;;;5.03;;
41077;SDS011;26823;42.662;23.352;2023-07-31T06:29:53;5.65;;;4.80;;
41077;SDS011;26823;42.662;23.352;2023-07-31T06:32:18;5.32;;;4.82;;
41077;SDS011;26823;42.662;23.352;2023-07-31T06:34:44;4.47;;;4.07;;
41077;SDS011;26823;42.662;23.352;2023-07-31T06:37:09;4.90;;;4.38;;
41077;SDS011;26823;42.662;23.352;2023-07-31T06:39:35;5.50;;;3.85;;
41077;SDS011;26823;42.662;23.352;2023-07-31T06:42:00;4.80;;;4.40;;
41077;SDS011;26823;42.662;23.352;2023-07-31T06:44:25;4.70;;;4.30;;
41077;SDS011;26823;42.662;23.352;2023-07-31T06:46:51;4.82;;;4.35;;
41077;SDS011;26823;42.662;23.352;2023-07-31T06:49:16;4.28;;;3.95;;
41077;SDS011;26823;42.662;23.352;2023-07-31T06:51:41;5.13;;;3.90;;
41077;SDS011;26823;42.662;23.352;2023-07-31T06:54:07;4.65;;;4.25;;
41077;SDS011;26823;42.662;23.352;2023-07-31T06:56:33;4.82;;;3.70;;
41077;SDS011;26823;42.662;23.352;2023-07-31T06:58:58;9.57;;;4.28;;
41077;SDS011;26823;42.662;23.352;2023-07-31T07:01:24;4.68;;;4.20;;
41077;SDS011;26823;42.662;23.352;2023-07-31T07:03:49;4.13;;;3.72;;
41077;SDS011;26823;42.662;23.352;2023-07-31T07:06:16;4.43;;;3.72;;
41077;SDS011;26823;42.662;23.352;2023-07-31T07:08:44;4.05;;;3.75;;
41077;SDS011;26823;42.662;23.352;2023-07-31T07:11:10;4.72;;;3.97;;
41077;SDS011;26823;42.662;23.352;2023-07-31T07:13:35;4.38;;;3.60;;
41077;SDS011;26823;42.662;23.352;2023-07-31T07:16:00;5.20;;;3.63;;
41077;SDS011;26823;42.662;23.352;2023-07-31T07:18:26;3.85;;;3.33;;
41077;SDS011;26823;42.662;23.352;2023-07-31T07:20:51;4.07;;;3.40;;
41077;SDS011;26823;42.662;23.352;2023-07-31T07:23:18;4.57;;;3.20;;
41077;SDS011;26823;42.662;23.352;2023-07-31T07:25:44;3.70;;;3.25;;
41077;SDS011;26823;42.662;23.352;2023-07-31T07:28:10;3.55;;;3.22;;
41077;SDS011;26823;42.662;23.352;2023-07-31T07:30:36;3.50;;;3.20;;
41077;SDS011;26823;42.662;23.352;2023-07-31T07:33:01;2.83;;;2.63;;
41077;SDS011;26823;42.662;23.352;2023-07-31T07:35:27;3.72;;;3.42;;
41077;SDS011;26823;42.662;23.352;2023-07-31T07:37:52;3.58;;;3.05;;
41077;SDS011;26823;42.662;23.352;2023-07-31T07:40:18;3.40;;;3.10;;
41077;SDS011;26823;42.662;23.352;2023-07-31T07:42:44;3.15;;;2.88;;
41077;SDS011;26823;42.662;23.352;2023-07-31T07:45:09;3.95;;;3.20;;
41077;SDS011;26823;42.662;23.352;2023-07-31T07:47:35;3.97;;;3.25;;
41077;SDS011;26823;42.662;23.352;2023-07-31T07:50:00;3.80;;;2.80;;
41077;SDS011;26823;42.662;23.352;2023-07-31T07:52:25;4.93;;;3.20;;
41077;SDS011;26823;42.662;23.352;2023-07-31T07:54:51;4.97;;;3.15;;
41077;SDS011;26823;42.662;23.352;2023-07-31T07:57:16;7.20;;;3.20;;
41077;SDS011;26823;42.662;23.352;2023-07-31T07:59:42;7.10;;;3.50;;
41077;SDS011;26823;42.662;23.352;2023-07-31T08:02:07;5.95;;;3.40;;
41077;SDS011;26823;42.662;23.352;2023-07-31T08:04:33;5.43;;;3.25;;
41077;SDS011;26823;42.662;23.352;2023-07-31T08:06:58;2.60;;;2.40;;
41077;SDS011;26823;42.662;23.352;2023-07-31T08:09:23;3.78;;;2.70;;
41077;SDS011;26823;42.662;23.352;2023-07-31T08:11:49;2.60;;;2.40;;
41077;SDS011;26823;42.662;23.352;2023-07-31T08:14:14;3.05;;;2.78;;
41077;SDS011;26823;42.662;23.352;2023-07-31T08:16:39;5.50;;;2.90;;
41077;SDS011;26823;42.662;23.352;2023-07-31T08:19:05;6.57;;;2.42;;
41077;SDS011;26823;42.662;23.352;2023-07-31T08:21:31;3.28;;;2.75;;
41077;SDS011;26823;42.662;23.352;2023-07-31T08:23:56;5.40;;;2.70;;
41077;SDS011;26823;42.662;23.352;2023-07-31T08:26:22;3.08;;;2.88;;
41077;SDS011;26823;42.662;23.352;2023-07-31T08:28:47;3.88;;;2.95;;
41077;SDS011;26823;42.662;23.352;2023-07-31T08:31:13;3.67;;;2.65;;
41077;SDS011;26823;42.662;23.352;2023-07-31T08:33:38;5.35;;;2.47;;
41077;SDS011;26823;42.662;23.352;2023-07-31T08:36:05;2.95;;;2.75;;
41077;SDS011;26823;42.662;23.352;2023-07-31T08:38:30;7.15;;;2.97;;
41077;SDS011;26823;42.662;23.352;2023-07-31T08:40:59;6.43;;;2.83;;
41077;SDS011;26823;42.662;23.352;2023-07-31T08:43:27;5.15;;;3.97;;
41077;SDS011;26823;42.662;23.352;2023-07-31T08:45:53;6.93;;;2.63;;
41077;SDS011;26823;42.662;23.352;2023-07-31T08:48:20;3.70;;;2.55;;
41077;SDS011;26823;42.662;23.352;2023-07-31T08:50:47;4.05;;;3.08;;
41077;SDS011;26823;42.662;23.352;2023-07-31T08:53:12;3.17;;;2.88;;
41077;SDS011;26823;42.662;23.352;2023-07-31T08:55:38;3.47;;;2.80;;
41077;SDS011;26823;42.662;23.352;2023-07-31T08:58:04;5.18;;;3.42;;
41077;SDS011;26823;42.662;23.352;2023-07-31T09:00:30;2.83;;;2.63;;
41077;SDS011;26823;42.662;23.352;2023-07-31T09:05:24;3.20;;;2.90;;
41077;SDS011;26823;42.662;23.352;2023-07-31T09:07:51;2.80;;;2.40;;
41077;SDS011;26823;42.662;23.352;2023-07-31T09:10:17;3.25;;;2.95;;
41077;SDS011;26823;42.662;23.352;2023-07-31T09:12:42;3.60;;;2.33;;
41077;SDS011;26823;42.662;23.352;2023-07-31T09:15:08;3.35;;;2.65;;
41077;SDS011;26823;42.662;23.352;2023-07-31T09:17:34;2.78;;;2.58;;
41077;SDS011;26823;42.662;23.352;2023-07-31T09:20:13;3.13;;;2.83;;
41077;SDS011;26823;42.662;23.352;2023-07-31T09:22:39;4.30;;;2.38;;
41077;SDS011;26823;42.662;23.352;2023-07-31T09:25:20;4.75;;;3.00;;
41077;SDS011;26823;42.662;23.352;2023-07-31T09:30:13;2.88;;;2.58;;
41077;SDS011;26823;42.662;23.352;2023-07-31T09:32:39;2.50;;;2.30;;
41077;SDS011;26823;42.662;23.352;2023-07-31T09:37:53;3.25;;;2.78;;
41077;SDS011;26823;42.662;23.352;2023-07-31T09:40:27;3.05;;;2.70;;
41077;SDS011;26823;42.662;23.352;2023-07-31T09:42:59;2.78;;;2.50;;
41077;SDS011;26823;42.662;23.352;2023-07-31T09:49:30;3.22;;;2.80;;
41077;SDS011;26823;42.662;23.352;2023-07-31T09:55:51;3.90;;;2.90;;
41077;SDS011;26823;42.662;23.352;2023-07-31T09:58:17;3.20;;;2.55;;
41077;SDS011;26823;42.662;23.352;2023-07-31T10:03:38;3.40;;;2.70;;
41077;SDS011;26823;42.662;23.352;2023-07-31T10:06:44;2.80;;;2.47;;
41077;SDS011;26823;42.662;23.352;2023-07-31T10:09:18;3.00;;;2.50;;
41077;SDS011;26823;42.662;23.352;2023-07-31T10:11:47;2.70;;;2.33;;
41077;SDS011;26823;42.662;23.352;2023-07-31T10:14:22;2.85;;;2.28;;
41077;SDS011;26823;42.662;23.352;2023-07-31T10:16:49;2.05;;;1.95;;
41077;SDS011;26823;42.662;23.352;2023-07-31T10:19:15;2.78;;;2.28;;
41077;SDS011;26823;42.662;23.352;2023-07-31T10:21:42;6.22;;;2.90;;
41077;SDS011;26823;42.662;23.352;2023-07-31T10:24:08;3.47;;;2.05;;
41077;SDS011;26823;42.662;23.352;2023-07-31T10:26:34;3.35;;;2.20;;
41077;SDS011;26823;42.662;23.352;2023-07-31T10:29:02;2.63;;;2.33;;
41077;SDS011;26823;42.662;23.352;2023-07-31T10:31:29;2.80;;;2.22;;
41077;SDS011;26823;42.662;23.352;2023-07-31T10:33:56;4.68;;;2.35;;
41077;SDS011;26823;42.662;23.352;2023-07-31T10:36:24;2.95;;;2.30;;
41077;SDS011;26823;42.662;23.352;2023-07-31T10:38:50;3.40;;;2.38;;
41077;SDS011;26823;42.662;23.352;2023-07-31T10:41:16;2.30;;;2.10;;
41077;SDS011;26823;42.662;23.352;2023-07-31T10:43:41;1.95;;;1.80;;
41077;SDS011;26823;42.662;23.352;2023-07-31T10:46:07;2.17;;;1.83;;
41077;SDS011;26823;42.662;23.352;2023-07-31T10:48:34;3.13;;;1.90;;
41077;SDS011;26823;42.662;23.352;2023-07-31T10:51:02;1.92;;;1.83;;
41077;SDS011;26823;42.662;23.352;2023-07-31T10:53:35;2.85;;;2.00;;
41077;SDS011;26823;42.662;23.352;2023-07-31T10:56:02;2.17;;;1.85;;
41077;SDS011;26823;42.662;23.352;2023-07-31T10:58:29;3.45;;;1.90;;
41077;SDS011;26823;42.662;23.352;2023-07-31T11:00:57;3.30;;;1.98;;
41077;SDS011;26823;42.662;23.352;2023-07-31T11:03:29;1.60;;;1.50;;
41077;SDS011;26823;42.662;23.352;2023-07-31T11:06:09;1.98;;;1.77;;
41077;SDS011;26823;42.662;23.352;2023-07-31T11:08:35;1.67;;;1.58;;
41077;SDS011;26823;42.662;23.352;2023-07-31T11:11:08;2.25;;;1.98;;
41077;SDS011;26823;42.662;23.352;2023-07-31T11:16:11;1.83;;;1.73;;
41077;SDS011;26823;42.662;23.352;2023-07-31T11:18:41;2.88;;;1.88;;
41077;SDS011;26823;42.662;23.352;2023-07-31T11:21:08;4.00;;;1.80;;
41077;SDS011;26823;42.662;23.352;2023-07-31T11:23:37;3.28;;;1.50;;
41077;SDS011;26823;42.662;23.352;2023-07-31T11:26:04;2.53;;;1.40;;
41077;SDS011;26823;42.662;23.352;2023-07-31T11:28:34;2.30;;;1.50;;
41077;SDS011;26823;42.662;23.352;2023-07-31T11:31:00;6.38;;;1.67;;
41077;SDS011;26823;42.662;23.352;2023-07-31T11:33:27;1.67;;;1.58;;
41077;SDS011;26823;42.662;23.352;2023-07-31T11:35:52;2.15;;;1.67;;
41077;SDS011;26823;42.662;23.352;2023-07-31T11:38:25;2.45;;;1.77;;
41077;SDS011;26823;42.662;23.352;2023-07-31T11:40:55;1.85;;;1.75;;
41077;SDS011;26823;42.662;23.352;2023-07-31T11:43:31;1.90;;;1.58;;
41077;SDS011;26823;42.662;23.352;2023-07-31T11:45:58;2.30;;;1.70;;
41077;SDS011;26823;42.662;23.352;2023-07-31T11:48:25;2.55;;;1.50;;
41077;SDS011;26823;42.662;23.352;2023-07-31T11:50:58;3.70;;;1.77;;
41077;SDS011;26823;42.662;23.352;2023-07-31T11:53:29;4.63;;;2.08;;
41077;SDS011;26823;42.662;23.352;2023-07-31T11:56:17;3.55;;;2.22;;
41077;SDS011;26823;42.662;23.352;2023-07-31T11:58:48;2.28;;;2.05;;
41077;SDS011;26823;42.662;23.352;2023-07-31T12:03:45;2.90;;;2.60;;
41077;SDS011;26823;42.662;23.352;2023-07-31T12:06:12;3.42;;;2.33;;
41077;SDS011;26823;42.662;23.352;2023-07-31T12:08:37;4.10;;;2.40;;
41077;SDS011;26823;42.662;23.352;2023-07-31T12:11:03;4.05;;;2.50;;
41077;SDS011;26823;42.662;23.352;2023-07-31T12:13:31;2.47;;;2.20;;
41077;SDS011;26823;42.662;23.352;2023-07-31T12:15:58;2.60;;;2.40;;
41077;SDS011;26823;42.662;23.352;2023-07-31T12:18:26;2.60;;;2.40;;
41077;SDS011;26823;42.662;23.352;2023-07-31T12:20:59;2.92;;;2.70;;
41077;SDS011;26823;42.662;23.352;2023-07-31T12:23:30;4.05;;;3.10;;
41077;SDS011;26823;42.662;23.352;2023-07-31T12:26:09;3.85;;;2.72;;
41077;SDS011;26823;42.662;23.352;2023-07-31T12:31:09;3.67;;;3.15;;
41077;SDS011;26823;42.662;23.352;2023-07-31T12:36:08;4.72;;;4.32;;
41077;SDS011;26823;42.662;23.352;2023-07-31T12:38:35;5.88;;;4.35;;
41077;SDS011;26823;42.662;23.352;2023-07-31T12:41:01;4.82;;;4.43;;
41077;SDS011;26823;42.662;23.352;2023-07-31T12:43:26;6.18;;;4.07;;
41077;SDS011;26823;42.662;23.352;2023-07-31T12:45:53;4.35;;;4.05;;
41077;SDS011;26823;42.662;23.352;2023-07-31T12:48:19;4.55;;;4.18;;
41077;SDS011;26823;42.662;23.352;2023-07-31T12:50:44;4.75;;;4.28;;
41077;SDS011;26823;42.662;23.352;2023-07-31T12:53:10;4.72;;;4.32;;
41077;SDS011;26823;42.662;23.352;2023-07-31T12:55:35;4.75;;;4.30;;
41077;SDS011;26823;42.662;23.352;2023-07-31T12:58:01;7.47;;;4.15;;
41077;SDS011;26823;42.662;23.352;2023-07-31T13:00:27;4.40;;;4.00;;
41077;SDS011;26823;42.662;23.352;2023-07-31T13:02:53;4.53;;;4.13;;
41077;SDS011;26823;42.662;23.352;2023-07-31T13:05:18;5.82;;;4.57;;
41077;SDS011;26823;42.662;23.352;2023-07-31T13:07:45;5.22;;;4.75;;
41077;SDS011;26823;42.662;23.352;2023-07-31T13:10:11;5.18;;;4.68;;
41077;SDS011;26823;42.662;23.352;2023-07-31T13:12:36;5.50;;;5.00;;
41077;SDS011;26823;42.662;23.352;2023-07-31T13:15:02;5.50;;;5.10;;
41077;SDS011;26823;42.662;23.352;2023-07-31T13:17:28;5.10;;;4.70;;
41077;SDS011;26823;42.662;23.352;2023-07-31T13:19:53;6.70;;;4.97;;
41077;SDS011;26823;42.662;23.352;2023-07-31T13:22:19;5.57;;;5.00;;
41077;SDS011;26823;42.662;23.352;2023-07-31T13:24:44;5.65;;;5.07;;
41077;SDS011;26823;42.662;23.352;2023-07-31T13:27:09;7.43;;;5.53;;
41077;SDS011;26823;42.662;23.352;2023-07-31T13:29:35;6.35;;;4.85;;
41077;SDS011;26823;42.662;23.352;2023-07-31T13:32:00;5.70;;;4.43;;
41077;SDS011;26823;42.662;23.352;2023-07-31T13:34:25;8.13;;;5.13;;
41077;SDS011;26823;42.662;23.352;2023-07-31T13:36:51;5.35;;;4.90;;
41077;SDS011;26823;42.662;23.352;2023-07-31T13:39:16;5.30;;;4.35;;
41077;SDS011;26823;42.662;23.352;2023-07-31T13:41:42;6.20;;;3.78;;
41077;SDS011;26823;42.662;23.352;2023-07-31T13:44:07;4.90;;;3.92;;
41077;SDS011;26823;42.662;23.352;2023-07-31T13:46:32;4.32;;;3.95;;
41077;SDS011;26823;42.662;23.352;2023-07-31T13:48:58;3.92;;;3.53;;
41077;SDS011;26823;42.662;23.352;2023-07-31T13:51:24;4.28;;;3.80;;
41077;SDS011;26823;42.662;23.352;2023-07-31T13:53:50;4.45;;;4.05;;
41077;SDS011;26823;42.662;23.352;2023-07-31T13:56:24;4.70;;;3.80;;
41077;SDS011;26823;42.662;23.352;2023-07-31T13:58:49;4.47;;;4.07;;
41077;SDS011;26823;42.662;23.352;2023-07-31T14:01:15;5.25;;;4.28;;
41077;SDS011;26823;42.662;23.352;2023-07-31T14:03:47;4.03;;;3.72;;
41077;SDS011;26823;42.662;23.352;2023-07-31T14:06:19;4.28;;;3.95;;
41077;SDS011;26823;42.662;23.352;2023-07-31T14:08:44;4.18;;;3.78;;
41077;SDS011;26823;42.662;23.352;2023-07-31T14:11:10;5.88;;;4.50;;
41077;SDS011;26823;42.662;23.352;2023-07-31T14:13:35;4.95;;;4.32;;
41077;SDS011;26823;42.662;23.352;2023-07-31T14:16:00;4.43;;;3.78;;
41077;SDS011;26823;42.662;23.352;2023-07-31T14:18:26;4.63;;;3.70;;
41077;SDS011;26823;42.662;23.352;2023-07-31T14:20:51;4.03;;;3.58;;
41077;SDS011;26823;42.662;23.352;2023-07-31T14:23:19;6.20;;;3.80;;
41077;SDS011;26823;42.662;23.352;2023-07-31T14:25:45;4.82;;;3.72;;
41077;SDS011;26823;42.662;23.352;2023-07-31T14:28:11;6.30;;;4.80;;
41077;SDS011;26823;42.662;23.352;2023-07-31T14:30:36;4.30;;;4.00;;
41077;SDS011;26823;42.662;23.352;2023-07-31T14:33:02;5.57;;;3.95;;
41077;SDS011;26823;42.662;23.352;2023-07-31T14:35:27;4.20;;;3.90;;
41077;SDS011;26823;42.662;23.352;2023-07-31T14:37:53;4.15;;;3.75;;
41077;SDS011;26823;42.662;23.352;2023-07-31T14:40:18;4.15;;;3.75;;
41077;SDS011;26823;42.662;23.352;2023-07-31T14:42:44;5.28;;;3.90;;
41077;SDS011;26823;42.662;23.352;2023-07-31T14:45:09;4.47;;;4.05;;
41077;SDS011;26823;42.662;23.352;2023-07-31T14:47:35;4.32;;;3.83;;
41077;SDS011;26823;42.662;23.352;2023-07-31T14:50:01;5.13;;;3.60;;
41077;SDS011;26823;42.662;23.352;2023-07-31T14:52:28;3.67;;;3.38;;
41077;SDS011;26823;42.662;23.352;2023-07-31T14:54:53;4.65;;;3.90;;
41077;SDS011;26823;42.662;23.352;2023-07-31T14:57:18;3.67;;;3.38;;
41077;SDS011;26823;42.662;23.352;2023-07-31T14:59:44;4.55;;;3.92;;
41077;SDS011;26823;42.662;23.352;2023-07-31T15:02:11;3.75;;;3.45;;